Time;durP1;ratioP1;P1;durP2;ratioP2;P2;SDS_P1;SDS_P2;PMS_P1;PMS_P2;Temp;Humidity;BMP_temperature;BMP_pressure;BME280_temperature;BME280_humidity;BME280_pressure;Samples;Min_cycle;Max_cycle;Signal;HPM_P1;HPM_P2
2023/05/09 00:06:37;;;;;;;3.10;2.30;;;;;;;;;;20957123;28;20282;-81
2023/05/09 00:16:42;;;;;;;3.67;2.67;;;;;;;;;;20992142;28;20286;-80
2023/05/09 00:26:43;;;;;;;2.97;2.23;;;;;;;;;;20992155;28;20243;-79
2023/05/09 00:36:45;;;;;;;3.10;2.27;;;;;;;;;;20957707;28;20225;-80
2023/05/09 00:46:47;;;;;;;3.30;2.17;;;;;;;;;;20961070;28;20224;-80
2023/05/09 00:56:49;;;;;;;2.90;2.60;;;;;;;;;;21090579;28;20673;-80
2023/05/09 01:06:59;;;;;;;3.07;2.30;;;;;;;;;;21089796;28;20236;-80
2023/05/09 01:17:12;;;;;;;4.57;2.30;;;;;;;;;;21079515;28;20201;-80
2023/05/09 01:27:32;;;;;;;2.73;2.07;;;;;;;;;;21099918;28;20238;-81
2023/05/09 01:37:35;;;;;;;2.80;2.13;;;;;;;;;;21036372;28;20224;-82
2023/05/09 01:47:38;;;;;;;2.73;2.10;;;;;;;;;;21068893;28;20229;-84
2023/05/09 01:57:40;;;;;;;2.80;2.00;;;;;;;;;;21018408;28;20621;-80
2023/05/09 02:07:46;;;;;;;3.10;2.30;;;;;;;;;;21015249;28;20694;-80
2023/05/09 02:17:48;;;;;;;3.03;2.37;;;;;;;;;;21065125;28;20217;-80
2023/05/09 02:27:51;;;;;;;4.87;2.23;;;16.30;99.90;;;;;;21065526;28;20220;-80
2023/05/09 02:37:53;;;;;;;3.43;2.53;;;16.30;99.90;;;;;;21064721;28;20767;-80
2023/05/09 02:47:55;;;;;;;4.03;2.87;;;;;;;;;;21122482;28;20253;-80
2023/05/09 02:57:57;;;;;;;2.77;2.47;;;;;;;;;;21094857;28;20209;-80
2023/05/09 03:08:05;;;;;;;2.83;2.03;;;;;;;;;;21030639;28;20593;-80
2023/05/09 03:18:08;;;;;;;3.27;2.37;;;;;;;;;;21053170;28;20270;-79
2023/05/09 03:28:10;;;;;;;3.00;2.13;;;;;;;;;;21041034;28;20230;-79
2023/05/09 03:38:13;;;;;;;3.37;2.40;;;;;;;;;;20969346;28;20295;-79
2023/05/09 03:48:15;;;;;;;2.30;1.83;;;;;;;;;;20923944;28;20291;-80
2023/05/09 03:58:21;;;;;;;3.10;2.23;;;;;;;;;;21061347;28;20265;-80
2023/05/09 04:08:24;;;;;;;3.33;2.20;;;;;;;;;;20967603;28;20279;-80
2023/05/09 04:18:26;;;;;;;5.73;2.47;;;;;;;;;;21027726;28;20670;-79
2023/05/09 04:28:28;;;;;;;2.50;2.00;;;;;;;;;;21041779;28;20295;-80
2023/05/09 04:38:37;;;;;;;3.20;2.80;;;;;;;;;;21079104;28;20263;-81
2023/05/09 04:48:43;;;;;;;4.10;2.83;;;;;;;;;;21042208;28;20224;-81
2023/05/09 04:58:45;;;;;;;3.70;2.80;;;;;;;;;;21040622;28;20216;-81
2023/05/09 05:08:47;;;;;;;3.70;2.50;;;;;;;;;;20962873;28;20768;-80
2023/05/09 05:18:49;;;;;;;6.40;3.10;;;;;;;;;;20940609;28;20760;-80
2023/05/09 05:28:55;;;;;;;5.37;3.83;;;;;;;;;;20958122;28;20292;-81
2023/05/09 05:38:57;;;;;;;8.70;4.30;;;;;;;;;;20932499;28;20237;-81
2023/05/09 05:49:00;;;;;;;11.40;5.40;;;;;;;;;;21052287;28;20302;-80
2023/05/09 05:59:03;;;;;;;11.10;5.67;;;;;;;;;;21079757;28;20224;-79
2023/05/09 06:09:05;;;;;;;9.77;4.53;;;;;;;;;;21083631;28;20236;-79
2023/05/09 06:19:06;;;;;;;7.17;4.70;;;;;;;;;;21063505;28;20725;-80
2023/05/09 06:29:09;;;;;;;7.17;4.67;;;;;;;;;;21050394;28;20282;-80
2023/05/09 06:39:11;;;;;;;9.20;5.17;;;;;;;;;;21084248;28;20224;-79
2023/05/09 06:49:14;;;;;;;8.10;5.03;;;;;;;;;;21028888;28;20233;-80
2023/05/09 06:59:15;;;;;;;7.93;4.80;;;;;;;;;;20982299;28;20209;-80
2023/05/09 07:09:19;;;;;;;8.33;5.93;;;;;;;;;;20979442;28;20225;-80
2023/05/09 07:19:21;;;;;;;7.10;4.97;;;;;;;;;;20978414;28;20214;-81
2023/05/09 07:29:22;;;;;;;7.63;5.30;;;;;;;;;;20993466;28;20730;-80
2023/05/09 07:39:27;;;;;;;5.70;4.60;;;;;;;;;;20960693;28;20698;-80
2023/05/09 07:49:29;;;;;;;5.30;4.47;;;;;;;;;;21011393;28;20236;-80
2023/05/09 07:59:31;;;;;;;5.50;4.57;;;;;;;;;;20979156;28;20851;-80
2023/05/09 08:09:33;;;;;;;5.63;4.40;;;;;;;;;;20993596;28;20287;-80
2023/05/09 08:19:34;;;;;;;5.70;4.13;;;;;;;;;;20973985;28;20217;-80
2023/05/09 08:29:36;;;;;;;5.10;4.17;;;;;;;;;;20959274;28;20533;-79
2023/05/09 08:39:38;;;;;;;6.03;4.40;;;;;;;;;;20974897;28;20291;-80
2023/05/09 08:49:40;;;;;;;6.53;4.87;;;17.80;99.90;;;;;;20941620;28;20237;-79
2023/05/09 08:59:42;;;;;;;5.73;4.83;;;;;;;;;;21012576;28;20205;-79
2023/05/09 09:09:44;;;;;;;6.00;4.60;;;;;;;;;;20999098;28;20228;-80
2023/05/09 09:19:49;;;;;;;4.97;4.47;;;18.60;99.90;;;;;;20989478;28;20275;-79
2023/05/09 09:29:51;;;;;;;5.43;4.40;;;;;;;;;;20986929;28;20229;-79
2023/05/09 09:39:56;;;;;;;5.57;4.37;;;;;;;;;;21005687;28;20234;-80
2023/05/09 09:50:18;;;;;;;5.70;3.80;;;18.90;99.90;;;;;;21002667;28;20225;-79
2023/05/09 10:00:24;;;;;;;5.47;4.20;;;;;;;;;;21001838;28;20695;-79
2023/05/09 10:10:27;;;;;;;5.43;4.40;;;18.80;99.90;;;;;;20979961;28;20229;-80
2023/05/09 10:20:29;;;;;;;6.30;4.83;;;;;;;;;;20997284;28;20598;-80
2023/05/09 10:30:32;;;;;;;5.23;3.90;;;19.40;99.90;;;;;;20998028;28;20217;-80
2023/05/09 10:40:34;;;;;;;5.17;3.93;;;;;;;;;;20979381;28;20779;-80
2023/05/09 10:50:39;;;;;;;5.03;4.07;;;;;;;;;;20997643;28;20359;-81
2023/05/09 11:00:41;;;;;;;4.93;3.70;;;;;;;;;;20984032;28;20213;-80
2023/05/09 11:10:43;;;;;;;5.83;3.57;;;;;;;;;;20961959;28;20268;-80
2023/05/09 11:20:45;;;;;;;10.20;4.17;;;;;;;;;;20979943;28;20202;-81
2023/05/09 11:30:47;;;;;;;4.23;3.50;;;;;;;;;;20978178;28;20222;-82
2023/05/09 11:40:53;;;;;;;4.73;3.43;;;18.70;99.90;;;;;;20944263;28;20283;-82
2023/05/09 11:50:55;;;;;;;3.40;2.70;;;;;;;;;;20950454;28;20279;-81
2023/05/09 12:00:57;;;;;;;3.83;2.57;;;;;;;;;;20974346;28;20276;-81
2023/05/09 12:11:09;;;;;;;4.43;3.23;;;;;;;;;;20910416;28;20219;-81
2023/05/09 12:21:11;;;;;;;3.03;2.40;;;;;;;;;;20908414;28;20280;-81
2023/05/09 12:31:13;;;;;;;4.30;2.50;;;;;;;;;;20939890;28;20225;-81
2023/05/09 12:41:19;;;;;;;2.50;1.80;;;19.70;99.90;;;;;;21010256;28;20222;-81
2023/05/09 12:51:22;;;;;;;1.73;1.20;;;;;;;;;;21002606;28;20286;-83
2023/05/09 13:01:27;;;;;;;3.30;1.67;;;;;;;;;;20968159;28;20269;-82
2023/05/09 13:11:29;;;;;;;2.73;1.20;;;;;;;;;;20983004;28;20715;-82
2023/05/09 13:21:31;;;;;;;2.43;1.63;;;;;;;;;;20984997;28;20586;-82
2023/05/09 13:31:33;;;;;;;2.27;1.60;;;;;;;;;;20984959;28;20268;-82
2023/05/09 13:41:35;;;;;;;2.80;1.53;;;;;;;;;;21001556;28;20219;-82
2023/05/09 13:51:37;;;;;;;2.27;1.50;;;;;;;;;;20956423;28;20578;-82
2023/05/09 14:01:39;;;;;;;2.10;1.40;;;;;;;;;;20987736;28;20231;-82
2023/05/09 14:11:41;;;;;;;2.23;1.63;;;;;;;;;;20940980;28;20325;-82
2023/05/09 14:21:45;;;;;;;2.80;1.70;;;19.80;99.90;;;;;;20929322;28;20425;-81
2023/05/09 14:31:47;;;;;;;1.57;1.23;;;;;;;;;;20939448;28;20484;-82
2023/05/09 14:41:49;;;;;;;3.03;1.60;;;;;;;;;;20911125;28;20318;-82
2023/05/09 14:51:50;;;;;;;1.53;1.20;;;;;;;;;;20958636;28;20224;-82
2023/05/09 15:01:52;;;;;;;1.60;1.17;;;;;;;;;;20981939;28;20274;-82
2023/05/09 15:11:54;;;;;;;1.40;1.00;;;;;;;;;;20972504;28;20708;-83
2023/05/09 15:21:57;;;;;;;1.33;0.97;;;;;;;;;;20984313;28;20223;-82
2023/05/09 15:31:59;;;;;;;2.37;1.20;;;;;;;;;;20943272;28;20285;-81
2023/05/09 15:42:03;;;;;;;3.10;0.77;;;;;;;;;;20978240;28;20296;-81
2023/05/09 15:52:06;;;;;;;1.10;0.70;;;20.20;99.90;;;;;;20882428;28;20239;-80
2023/05/09 16:02:08;;;;;;;1.20;0.80;;;;;;;;;;20928642;28;20249;-81
2023/05/09 16:12:10;;;;;;;1.13;0.87;;;;;;;;;;21024587;28;20281;-81
2023/05/09 16:22:12;;;;;;;1.30;0.90;;;;;;;;;;20971528;28;20281;-81
2023/05/09 16:32:13;;;;;;;1.20;0.90;;;;;;;;;;20989928;28;20238;-81
2023/05/09 16:42:16;;;;;;;3.53;1.00;;;;;;;;;;21018170;28;20716;-81
2023/05/09 16:52:17;;;;;;;1.53;1.10;;;;;;;;;;20947470;28;20378;-81
2023/05/09 17:02:19;;;;;;;1.80;1.40;;;;;;;;;;20900537;28;20275;-81
2023/05/09 17:12:21;;;;;;;3.10;2.00;;;;;;;;;;20887814;28;20248;-81
2023/05/09 17:22:23;;;;;;;2.17;1.60;;;;;;;;;;20902614;28;20229;-82
2023/05/09 17:32:25;;;;;;;2.57;1.87;;;;;;;;;;20992294;28;20262;-82
2023/05/09 17:42:26;;;;;;;1.50;1.07;;;;;;;;;;20990069;28;20246;-82
2023/05/09 17:52:29;;;;;;;1.23;0.60;;;;;;;;;;20981846;28;20285;-81
2023/05/09 18:02:31;;;;;;;1.47;0.60;;;;;;;;;;20966471;28;20581;-80
2023/05/09 18:12:33;;;;;;;0.97;0.60;;;;;;;;;;20982676;28;20283;-81
2023/05/09 18:22:36;;;;;;;0.67;0.43;;;;;;;;;;21025201;28;20229;-81
2023/05/09 18:32:38;;;;;;;0.70;0.40;;;;;;;;;;20987314;28;20280;-81
2023/05/09 18:42:41;;;;;;;0.83;0.50;;;;;;;;;;20997707;28;20221;-80
2023/05/09 18:52:44;;;;;;;0.70;0.47;;;;;;;;;;20987797;28;20282;-79
2023/05/09 19:02:46;;;;;;;1.60;0.77;;;;;;;;;;21079793;28;20225;-79
2023/05/09 19:12:49;;;;;;;0.87;0.57;;;;;;;;;;21072291;28;20233;-80
2023/05/09 19:22:51;;;;;;;0.73;0.60;;;;;;;;;;20979325;28;20217;-80
2023/05/09 19:32:53;;;;;;;1.83;0.67;;;;;;;;;;20986103;28;20251;-80
2023/05/09 19:42:55;;;;;;;0.50;0.40;;;;;;;;;;20988997;28;20221;-79
2023/05/09 19:52:57;;;;;;;0.43;0.40;;;;;;;;;;20972612;28;20287;-80
2023/05/09 20:03:01;;;;;;;2.03;0.47;;;;;;;;;;20946261;28;20218;-80
2023/05/09 20:13:03;;;;;;;0.90;0.50;;;;;;;;;;20917025;28;20298;-80
2023/05/09 20:23:04;;;;;;;2.03;0.50;;;;;;;;;;20970859;28;20209;-81
2023/05/09 20:33:06;;;;;;;0.40;0.40;;;;;;;;;;20969015;28;20299;-81
2023/05/09 20:43:08;;;;;;;0.47;0.30;;;;;;;;;;20970229;28;20251;-81
2023/05/09 20:53:09;;;;;;;0.60;0.50;;;;;;;;;;20997844;28;20218;-81
2023/05/09 21:03:11;;;;;;;1.00;0.60;;;;;;;;;;20990855;28;20308;-80
2023/05/09 21:13:13;;;;;;;0.80;0.50;;;;;;;;;;21005584;28;20750;-80
2023/05/09 21:23:14;;;;;;;0.60;0.40;;;;;;;;;;20986897;28;20569;-80
2023/05/09 21:33:16;;;;;;;0.50;0.40;;;;;;;;;;20968937;28;20272;-80
2023/05/09 21:43:18;;;;;;;0.60;0.40;;;;;;;;;;21059553;28;20232;-80
2023/05/09 21:53:21;;;;;;;1.10;0.50;;;;;;;;;;21046452;28;20216;-80
2023/05/09 22:03:22;;;;;;;0.83;0.43;;;;;;;;;;21068351;28;20270;-79
2023/05/09 22:13:25;;;;;;;0.67;0.50;;;;;;;;;;21084452;28;20266;-80
2023/05/09 22:23:27;;;;;;;0.63;0.40;;;;;;;;;;21064203;28;20212;-79
2023/05/09 22:33:29;;;;;;;0.20;0.20;;;;;;;;;;21095507;28;20287;-79
2023/05/09 22:43:30;;;;;;;0.20;0.20;;;;;;;;;;21063541;28;20278;-79
2023/05/09 22:53:32;;;;;;;0.13;0.13;;;;;;;;;;21062645;28;20212;-79
2023/05/09 23:03:34;;;;;;;0.30;0.30;;;;;;;;;;21079534;28;20533;-79
2023/05/09 23:13:35;;;;;;;0.20;0.20;;;;;;;;;;21061030;28;20224;-79
2023/05/09 23:23:37;;;;;;;0.43;0.23;;;;;;;;;;21078250;28;20274;-79
2023/05/09 23:33:39;;;;;;;0.30;0.30;;;;;;;;;;21079635;28;20286;-79
2023/05/09 23:43:40;;;;;;;0.20;0.20;;;17.00;99.90;;;;;;21059738;28;20273;-80
2023/05/09 23:53:42;;;;;;;0.20;0.20;;;;;;;;;;21076097;28;20543;-79
